Time;durP1;ratioP1;P1;durP2;ratioP2;P2;SDS_P1;SDS_P2;PMS_P1;PMS_P2;Temp;Humidity;BMP_temperature;BMP_pressure;BME280_temperature;BME280_humidity;BME280_pressure;Samples;Min_cycle;Max_cycle;Signal;HPM_P1;HPM_P2
2021/07/11 00:01:33;;;;;;;1.52;1.42;;;19.20;74.40;;;22.09;61.39;101463.13;5001551;28;97020;-72
2021/07/11 00:04:03;;;;;;;1.50;1.25;;;19.20;74.40;;;22.09;61.46;101459.63;4995950;28;97960;-73
2021/07/11 00:06:36;;;;;;;3.20;1.80;;;19.20;74.40;;;22.16;62.04;101467.94;4999285;28;96809;-72
2021/07/11 00:09:06;;;;;;;6.68;2.22;;;19.20;74.40;;;22.10;61.96;101461.22;5014858;28;96858;-72
2021/07/11 00:11:36;;;;;;;5.28;1.90;;;19.20;74.40;;;22.12;61.78;101464.38;5004205;28;97559;-72
2021/07/11 00:14:05;;;;;;;2.60;2.35;;;19.20;74.40;;;22.23;61.04;101457.16;4999708;28;96948;-72
2021/07/11 00:16:35;;;;;;;2.90;2.33;;;19.20;74.40;;;22.16;61.48;101460.53;5007071;28;97274;-72
2021/07/11 00:19:06;;;;;;;2.78;1.92;;;19.20;74.40;;;22.13;61.34;101455.81;5018431;27;97230;-72
2021/07/11 00:21:39;;;;;;;2.83;1.63;;;19.20;74.40;;;22.15;61.75;101458.97;5000000;28;96999;-72
2021/07/11 00:24:08;;;;;;;2.28;1.25;;;19.20;74.40;;;22.13;61.93;101455.81;5004314;28;97048;-72
2021/07/11 00:26:37;;;;;;;4.35;2.58;;;19.20;74.40;;;22.11;62.02;101452.66;5002311;28;96893;-72
2021/07/11 00:29:05;;;;;;;1.67;1.40;;;19.10;74.40;;;22.11;61.47;101455.38;5003032;28;96925;-72
2021/07/11 00:31:34;;;;;;;6.45;2.70;;;19.10;74.50;;;22.07;61.71;101462.72;4999925;28;97250;-72
2021/07/11 00:34:10;;;;;;;1.38;1.27;;;19.10;74.40;;;22.06;61.42;101465.78;4999669;28;97945;-72
2021/07/11 00:36:40;;;;;;;1.73;0.95;;;19.10;74.50;;;22.00;61.59;101459.84;5001940;28;96921;-71
2021/07/11 00:39:08;;;;;;;2.75;2.08;;;19.00;74.40;;;22.04;61.92;101455.25;4989033;28;97625;-72
2021/07/11 00:41:43;;;;;;;5.75;3.28;;;19.00;74.50;;;22.04;61.64;101457.16;5019191;27;97455;-72
2021/07/11 00:44:12;;;;;;;3.60;1.88;;;19.10;74.60;;;22.06;61.57;101461.13;4982998;28;97853;-72
2021/07/11 00:46:47;;;;;;;1.73;1.60;;;19.00;74.50;;;22.20;61.10;101461.38;5001227;28;98710;-72
2021/07/11 00:49:17;;;;;;;2.42;2.22;;;19.10;74.60;;;22.22;61.11;101464.56;5001914;28;100078;-72
2021/07/11 00:51:48;;;;;;;3.60;2.28;;;19.00;74.50;;;22.23;61.40;101466.94;5002067;28;97365;-72
2021/07/11 00:54:19;;;;;;;1.67;1.58;;;19.00;74.60;;;22.21;61.14;101462.97;5016419;27;98080;-72
2021/07/11 00:56:49;;;;;;;7.90;3.13;;;19.00;74.60;;;22.20;61.21;101455.94;4997301;28;96974;-71
2021/07/11 00:59:21;;;;;;;2.90;2.20;;;19.00;74.60;;;22.19;60.83;101465.28;4997699;28;97273;-71
2021/07/11 01:02:06;;;;;;;3.95;2.90;;;19.00;74.60;;;22.15;61.29;101458.97;4997896;28;97380;-71
2021/07/11 01:04:48;;;;;;;0.83;0.83;;;19.00;74.60;;;22.17;61.49;101462.13;5002364;28;97014;-72
2021/07/11 01:07:28;;;;;;;3.83;2.38;;;19.00;74.60;;;22.16;60.87;101468.72;5001753;28;97987;-72
2021/07/11 01:10:05;;;;;;;1.30;0.95;;;19.00;74.60;;;22.18;61.00;101468.38;5017806;27;97357;-72
2021/07/11 01:12:45;;;;;;;3.00;2.30;;;19.00;75.30;;;22.14;60.94;101473.75;5019064;27;96856;-72
2021/07/11 01:15:15;;;;;;;1.55;1.05;;;19.00;74.70;;;22.08;60.80;101475.22;5020390;27;97323;-72
2021/07/11 01:17:46;;;;;;;0.88;0.82;;;19.00;74.70;;;22.04;61.08;101479.81;5003109;28;97097;-72
2021/07/11 01:20:39;;;;;;;1.05;1.05;;;18.90;74.60;;;22.00;61.26;101472.69;5001497;28;97484;-72
2021/07/11 01:23:26;;;;;;;4.18;2.45;;;18.90;74.70;;;22.03;61.33;101472.78;5001684;28;96900;-73
2021/07/11 01:25:56;;;;;;;2.15;1.33;;;18.90;74.70;;;22.02;61.52;101470.38;5017496;27;98108;-72
2021/07/11 01:28:25;;;;;;;4.88;2.95;;;18.90;74.70;;;22.01;61.17;101477.00;5004588;28;97397;-72
2021/07/11 01:30:57;;;;;;;5.53;2.28;;;18.90;74.70;;;22.07;61.40;101467.38;5005371;28;96924;-72
2021/07/11 01:33:31;;;;;;;61.47;2.72;;;18.90;74.70;;;22.05;60.92;101469.66;4999811;28;96736;-72
2021/07/11 01:36:03;;;;;;;4.85;2.35;;;18.90;74.80;;;22.04;61.33;101476.28;5019735;27;97560;-72
2021/07/11 01:38:34;;;;;;;5.00;1.75;;;18.90;74.80;;;21.98;61.83;101473.06;4990394;28;96854;-72
2021/07/11 01:41:09;;;;;;;4.20;1.83;;;18.90;74.80;;;22.02;60.97;101473.91;5032512;27;96861;-72
2021/07/11 01:43:41;;;;;;;1.42;1.33;;;18.90;74.80;;;21.93;61.54;101469.81;5000487;28;97158;-73
2021/07/11 01:46:11;;;;;;;6.80;1.42;;;18.80;74.70;;;21.84;62.05;101475.50;5019141;27;97585;-73
2021/07/11 01:48:44;;;;;;;1.67;1.58;;;18.80;74.70;;;21.84;61.99;101472.00;5001763;28;97753;-73
2021/07/11 01:51:14;;;;;;;1.70;0.57;;;18.80;74.80;;;21.84;61.11;101470.03;4999796;28;96971;-72
2021/07/11 01:53:48;;;;;;;2.30;1.27;;;18.80;74.80;;;21.83;61.28;101468.47;5019055;27;96943;-72
2021/07/11 01:56:20;;;;;;;3.47;1.73;;;18.80;74.80;;;21.82;62.15;101466.88;5001763;28;96910;-72
2021/07/11 01:58:50;;;;;;;0.30;0.30;;;18.80;74.90;;;21.88;61.38;101467.38;5016145;28;102710;-72
2021/07/11 02:01:23;;;;;;;1.70;1.60;;;18.80;74.90;;;21.95;61.28;101467.53;4999639;28;97278;-73
2021/07/11 02:04:04;;;;;;;1.30;0.82;;;18.80;74.90;;;21.94;61.31;101464.03;4989537;28;96828;-73
2021/07/11 02:06:35;;;;;;;5.63;2.65;;;18.70;74.80;;;21.93;61.62;101461.66;4988443;28;97886;-73
2021/07/11 02:09:16;;;;;;;2.90;1.35;;;18.70;74.90;;;21.95;61.02;101462.06;4998573;28;97616;-73
2021/07/11 02:11:49;;;;;;;0.82;0.70;;;18.70;74.90;;;21.85;61.06;101466.16;4981922;28;96780;-72
2021/07/11 02:14:25;;;;;;;3.85;2.58;;;18.70;75.00;;;21.85;61.43;101468.88;5014632;27;96896;-73
2021/07/11 02:17:03;;;;;;;5.63;1.45;;;18.70;75.10;;;21.79;61.82;101467.59;4998936;28;97909;-74
2021/07/11 02:19:42;;;;;;;2.53;1.30;;;18.60;75.00;;;21.68;61.52;101469.34;5012549;27;97663;-74
2021/07/11 02:22:14;;;;;;;4.45;1.40;;;18.60;74.90;;;21.61;61.91;101465.63;5000901;28;96594;-74
2021/07/11 02:24:46;;;;;;;11.02;2.03;;;18.60;75.00;;;21.59;61.18;101462.47;5032368;27;97004;-74
2021/07/11 02:27:22;;;;;;;0.70;0.70;;;18.60;75.00;;;21.51;61.83;101466.97;5004435;28;97257;-74
2021/07/11 02:29:55;;;;;;;1.98;1.50;;;18.50;75.00;;;21.48;62.20;101475.88;4998718;28;97631;-74
2021/07/11 02:32:27;;;;;;;3.40;2.10;;;18.50;75.10;;;21.46;62.16;101466.44;5000879;28;97452;-74
2021/07/11 02:34:58;;;;;;;0.67;0.67;;;18.40;75.20;;;21.46;62.18;101467.25;5004857;28;96884;-74
2021/07/11 02:37:32;;;;;;;1.00;0.65;;;18.40;75.30;;;21.47;61.71;101468.84;5015546;28;96944;-74
2021/07/11 02:40:09;;;;;;;2.13;1.98;;;18.40;75.30;;;21.48;61.62;101467.69;4980280;28;98328;-74
2021/07/11 02:42:43;;;;;;;4.38;1.77;;;18.40;75.40;;;21.44;61.74;101463.28;5017547;27;97571;-74
2021/07/11 02:45:18;;;;;;;0.82;0.82;;;18.40;75.40;;;21.42;62.26;101468.31;4998926;28;96996;-74
2021/07/11 02:47:48;;;;;;;2.88;1.25;;;18.40;75.40;;;21.44;62.08;101466.00;4998273;28;97373;-74
2021/07/11 02:50:19;;;;;;;2.80;1.77;;;18.40;75.40;;;21.50;61.34;101462.66;5014817;27;97745;-74
2021/07/11 02:52:55;;;;;;;0.93;0.93;;;18.30;75.50;;;21.51;61.10;101468.91;5016359;27;96942;-73
2021/07/11 02:55:30;;;;;;;1.35;1.23;;;18.30;75.50;;;21.51;61.96;101468.91;5002829;28;96827;-73
2021/07/11 02:58:09;;;;;;;15.88;2.17;;;18.30;75.50;;;21.53;60.99;101472.84;4979279;28;97295;-73
2021/07/11 03:00:43;;;;;;;0.85;0.85;;;18.40;75.50;;;21.53;61.18;101488.44;5000193;28;97188;-73
2021/07/11 03:03:17;;;;;;;5.93;2.13;;;18.30;75.50;;;21.56;60.90;101487.72;4995603;28;97045;-72
2021/07/11 03:05:55;;;;;;;3.38;1.50;;;18.30;76.10;;;21.47;61.16;101487.91;4999629;28;97394;-72
2021/07/11 03:08:24;;;;;;;1.60;1.02;;;18.30;75.40;;;21.38;61.91;101492.78;4996963;28;97169;-73
2021/07/11 03:10:58;;;;;;;14.60;2.70;;;18.20;75.40;;;21.36;61.72;101497.00;5000590;28;97102;-72
2021/07/11 03:13:34;;;;;;;1.50;1.40;;;18.20;75.50;;;21.29;61.77;101500.34;4994552;28;97215;-72
2021/07/11 03:16:07;;;;;;;5.45;2.22;;;18.20;75.50;;;21.32;61.62;101502.41;5004794;28;96710;-73
2021/07/11 03:18:41;;;;;;;5.32;1.13;;;18.20;75.70;;;21.35;61.90;101509.88;4999002;28;97971;-73
2021/07/11 03:21:12;;;;;;;2.38;1.92;;;18.10;75.70;;;21.24;61.65;101516.22;5014533;28;97183;-73
2021/07/11 03:23:49;;;;;;;0.90;0.90;;;18.10;75.60;;;21.14;61.54;101517.53;4981741;28;97308;-73
2021/07/11 03:26:19;;;;;;;2.90;1.83;;;18.00;75.60;;;21.15;62.18;101518.31;4997531;28;97278;-72
2021/07/11 03:28:52;;;;;;;2.97;1.23;;;18.00;75.70;;;21.13;62.69;101521.41;5000392;28;97887;-72
2021/07/11 03:31:24;;;;;;;1.80;1.42;;;18.00;75.80;;;21.21;61.47;101530.56;4999195;28;96777;-72
2021/07/11 03:33:57;;;;;;;3.78;1.42;;;18.00;75.90;;;21.24;61.24;101538.03;5031715;27;96884;-72
2021/07/11 03:36:33;;;;;;;0.88;0.88;;;18.00;76.00;;;21.19;60.91;101530.13;4998869;28;96772;-72
2021/07/11 03:39:17;;;;;;;1.02;1.00;;;18.00;76.00;;;21.18;61.91;101534.75;5011970;27;97036;-72
2021/07/11 03:41:49;;;;;;;1.92;1.83;;;17.90;75.90;;;21.15;61.66;101535.47;5026598;27;97812;-72
2021/07/11 03:44:20;;;;;;;3.65;1.70;;;17.90;76.00;;;21.17;62.01;101533.19;4998718;28;97825;-72
2021/07/11 03:46:52;;;;;;;8.30;2.70;;;17.90;76.00;;;21.11;61.46;101545.50;5001377;28;96852;-71
2021/07/11 03:49:22;;;;;;;1.80;1.55;;;17.90;76.10;;;21.08;61.07;101529.84;5002904;28;98101;-71
2021/07/11 03:51:57;;;;;;;2.83;1.38;;;17.90;76.10;;;21.05;61.99;101533.28;5004500;28;97644;-71
2021/07/11 03:54:26;;;;;;;1.60;1.27;;;17.90;76.00;;;21.07;61.15;101533.72;5018503;27;96875;-71
2021/07/11 03:56:56;;;;;;;1.30;1.25;;;17.90;76.00;;;21.06;62.77;101531.34;5017763;27;97019;-71
2021/07/11 03:59:28;;;;;;;0.68;0.68;;;17.90;76.00;;;21.09;60.93;101525.19;5015279;27;97906;-71
2021/07/11 04:01:58;;;;;;;7.40;1.77;;;17.90;76.00;;;21.03;62.37;101524.66;5003138;28;97091;-72
2021/07/11 04:04:30;;;;;;;1.08;1.02;;;17.90;76.00;;;21.01;61.50;101523.44;5003215;28;96965;-71
2021/07/11 04:07:01;;;;;;;4.00;2.28;;;17.90;76.00;;;21.04;61.68;101528.97;5002929;28;97117;-72
2021/07/11 04:09:32;;;;;;;0.95;0.95;;;17.90;76.00;;;21.04;61.44;101526.25;5001633;28;96798;-71
2021/07/11 04:12:04;;;;;;;2.55;1.67;;;17.90;76.00;;;21.04;61.09;101518.06;5005396;28;97410;-71
2021/07/11 04:14:34;;;;;;;1.92;1.35;;;17.90;76.00;;;21.03;61.53;101521.13;5006503;28;96969;-71
2021/07/11 04:17:10;;;;;;;1.73;1.48;;;17.90;76.00;;;20.99;61.97;101512.09;5002385;28;96936;-72
2021/07/11 04:19:43;;;;;;;16.77;3.20;;;17.90;76.10;;;20.90;62.40;101516.94;5017383;27;98056;-72
2021/07/11 04:22:16;;;;;;;0.65;0.65;;;17.90;76.00;;;21.02;61.52;101516.84;5000284;28;97273;-72
2021/07/11 04:24:48;;;;;;;6.32;1.90;;;17.90;75.90;;;20.99;61.25;101521.03;5004271;28;96896;-72
2021/07/11 04:27:17;;;;;;;3.15;1.25;;;17.90;76.00;;;20.97;61.68;101517.88;5002346;28;97074;-72
2021/07/11 04:29:50;;;;;;;1.05;1.00;;;17.90;75.90;;;20.93;61.55;101517.00;5002163;28;96893;-72
2021/07/11 04:32:19;;;;;;;1.10;1.00;;;17.80;75.90;;;20.95;62.20;101513.94;5001695;28;97287;-72
2021/07/11 04:34:49;;;;;;;2.55;1.75;;;17.80;76.00;;;21.01;61.87;101518.75;5000645;28;97042;-72
2021/07/11 04:37:18;;;;;;;2.28;1.63;;;17.80;76.00;;;21.06;61.63;101512.25;4998922;28;97115;-71
2021/07/11 04:39:46;;;;;;;2.22;1.67;;;17.90;76.10;;;21.06;62.00;101513.06;5000831;28;98045;-71
2021/07/11 04:42:16;;;;;;;4.38;1.77;;;17.90;76.00;;;21.07;61.71;101522.81;4999492;28;97418;-71
2021/07/11 04:44:47;;;;;;;2.05;1.20;;;17.90;76.00;;;21.05;61.66;101514.22;5001777;28;96872;-72
2021/07/11 04:47:16;;;;;;;1.65;0.85;;;17.90;76.00;;;21.09;61.93;101517.00;5000713;28;97261;-72
2021/07/11 04:49:44;;;;;;;0.98;0.57;;;17.90;76.10;;;21.09;61.46;101517.81;4994498;28;97703;-71
2021/07/11 04:52:13;;;;;;;5.93;1.55;;;17.90;76.10;;;21.03;62.13;101511.03;5016927;27;97433;-71
2021/07/11 04:54:42;;;;;;;1.98;1.15;;;17.90;76.00;;;21.10;61.88;101504.94;5007038;28;97045;-71
2021/07/11 04:57:10;;;;;;;1.10;1.08;;;17.90;76.00;;;21.11;61.96;101501.09;4999872;28;96926;-72
2021/07/11 04:59:39;;;;;;;6.30;1.98;;;17.90;76.10;;;21.21;61.31;101508.75;5000483;28;98154;-71
2021/07/11 05:02:09;;;;;;;1.33;0.85;;;17.90;76.00;;;21.21;61.49;101509.50;4999511;28;97186;-72
2021/07/11 05:04:38;;;;;;;1.23;1.15;;;17.90;76.10;;;21.26;61.71;101509.25;5002914;28;97267;-72
2021/07/11 05:07:07;;;;;;;3.50;2.10;;;17.90;76.10;;;21.38;61.50;101505.63;4999401;28;96939;-71
2021/07/11 05:09:36;;;;;;;2.88;1.60;;;18.00;76.10;;;21.39;61.68;101515.38;5004142;28;97410;-70
2021/07/11 05:12:06;;;;;;;0.35;0.35;;;18.00;76.00;;;21.45;61.38;101506.56;5000308;28;97275;-70
2021/07/11 05:14:34;;;;;;;1.60;1.38;;;18.00;76.00;;;21.52;60.57;101511.41;4999950;28;96734;-70
2021/07/11 05:17:04;;;;;;;2.15;2.03;;;18.10;75.90;;;21.57;60.94;101516.59;4996666;28;97320;-70
2021/07/11 05:19:35;;;;;;;5.72;2.03;;;18.10;75.90;;;21.62;60.59;101517.13;4999838;28;97926;-71
2021/07/11 05:22:05;;;;;;;3.75;2.17;;;18.20;75.90;;;21.63;61.25;101518.72;5001573;28;97726;-70
2021/07/11 05:24:34;;;;;;;4.10;2.40;;;18.20;75.80;;;21.69;60.84;101520.00;5001221;28;96857;-70
2021/07/11 05:27:04;;;;;;;3.97;1.33;;;18.30;75.80;;;21.77;60.34;101519.00;4999240;28;97469;-71
2021/07/11 05:29:33;;;;;;;6.18;2.17;;;18.30;75.80;;;21.90;60.55;101520.44;4997345;28;97419;-70
2021/07/11 05:32:03;;;;;;;4.60;2.35;;;18.40;75.70;;;21.90;60.87;101523.16;5016314;27;97712;-71
2021/07/11 05:34:33;;;;;;;3.42;1.75;;;18.40;75.60;;;22.02;60.23;101519.53;5000414;28;97159;-71
2021/07/11 05:37:04;;;;;;;2.13;1.98;;;18.50;75.60;;;22.08;60.28;101518.88;4998473;28;99411;-72
2021/07/11 05:39:33;;;;;;;1.92;1.30;;;18.50;75.50;;;22.20;59.88;101515.22;4999214;28;98761;-72
2021/07/11 05:42:04;;;;;;;1.77;0.82;;;18.60;75.40;;;22.29;59.69;101528.28;5007105;28;98900;-72
2021/07/11 05:44:33;;;;;;;6.82;1.83;;;18.60;75.30;;;22.38;59.55;101519.91;5003059;28;97329;-72
2021/07/11 05:47:04;;;;;;;3.13;1.95;;;18.70;75.30;;;22.51;59.65;101519.38;5015707;28;97787;-71
2021/07/11 05:49:34;;;;;;;6.78;2.13;;;18.80;75.10;;;22.67;59.07;101519.25;5013946;27;98238;-71
2021/07/11 05:52:05;;;;;;;1.02;0.93;;;18.90;75.20;;;22.83;59.11;101509.78;4996976;28;96887;-71
2021/07/11 05:54:34;;;;;;;2.22;0.95;;;19.00;75.00;;;22.95;58.84;101528.72;5000844;28;97485;-72
2021/07/11 05:57:05;;;;;;;4.45;1.95;;;19.10;75.10;;;23.05;58.40;101522.66;5001608;28;97011;-71
2021/07/11 05:59:37;;;;;;;8.18;1.90;;;19.20;74.50;;;23.09;58.49;101539.13;4998165;28;98233;-71
2021/07/11 06:02:06;;;;;;;2.60;1.52;;;19.30;74.40;;;23.17;58.54;101529.91;5001214;28;97827;-71
2021/07/11 06:04:36;;;;;;;1.98;1.35;;;19.40;74.40;;;23.24;58.56;101535.50;4997883;28;97378;-71
2021/07/11 06:07:06;;;;;;;5.97;1.73;;;19.50;74.30;;;23.41;58.20;101532.22;4997689;28;97935;-70
2021/07/11 06:09:34;;;;;;;1.73;1.63;;;19.50;74.20;;;23.58;57.85;101532.50;5032653;27;98280;-71
2021/07/11 06:12:06;;;;;;;1.23;0.90;;;19.60;74.10;;;23.82;57.37;101526.59;4997637;28;97181;-71
2021/07/11 06:14:35;;;;;;;3.90;3.20;;;19.80;74.00;;;24.01;57.01;101518.25;4999758;28;96977;-71
2021/07/11 06:17:05;;;;;;;2.63;2.22;;;19.90;73.80;;;24.20;57.05;101526.31;5013294;28;96919;-71
2021/07/11 06:19:33;;;;;;;2.53;0.95;;;20.10;73.70;;;24.25;56.83;101524.00;5000116;28;96890;-71
2021/07/11 06:22:07;;;;;;;2.90;1.25;;;20.20;73.60;;;24.30;56.96;101526.41;4996954;28;97670;-71
2021/07/11 06:24:36;;;;;;;1.13;1.02;;;20.30;73.50;;;24.40;57.01;101533.16;4999903;28;97205;-71
2021/07/11 06:27:06;;;;;;;2.28;2.05;;;20.40;73.40;;;24.51;56.82;101531.38;4998731;28;97215;-71
2021/07/11 06:29:34;;;;;;;1.10;0.98;;;20.50;73.30;;;24.80;55.95;101528.53;4999745;28;98912;-71
2021/07/11 06:32:05;;;;;;;1.25;1.15;;;20.60;73.20;;;25.36;55.39;101522.72;5015487;27;97712;-71
2021/07/11 06:34:34;;;;;;;5.35;3.13;;;20.90;72.90;;;25.80;54.44;101529.66;5001736;28;97331;-70
2021/07/11 06:37:06;;;;;;;2.13;1.20;;;21.20;72.30;;;26.82;52.43;101514.31;4999612;28;96885;-70
2021/07/11 06:39:35;;;;;;;7.93;0.98;;;21.80;71.60;;;28.61;49.19;101507.94;5001647;28;97871;-70
2021/07/11 06:42:05;;;;;;;3.88;2.28;;;22.80;70.20;;;31.71;43.71;101505.84;5005056;28;96976;-71
2021/07/11 06:44:33;;;;;;;1.58;1.23;;;24.60;67.90;;;34.98;39.20;101491.88;5004317;28;96810;-72
2021/07/11 06:47:07;;;;;;;2.67;1.83;;;27.00;64.90;;;34.15;42.41;101485.78;5001531;28;96938;-72
2021/07/11 06:49:36;;;;;;;3.50;2.25;;;27.90;63.80;;;32.31;47.06;101494.28;5003176;28;97357;-72
2021/07/11 06:52:07;;;;;;;3.65;2.92;;;27.60;64.70;;;32.06;48.05;101485.69;4998331;28;97973;-71
2021/07/11 06:54:37;;;;;;;5.95;3.33;;;27.40;65.50;;;31.42;49.63;101496.47;4980590;28;96957;-72
2021/07/11 06:57:07;;;;;;;1.50;1.40;;;27.20;66.10;;;30.57;51.71;101505.84;4995505;28;96963;-71
2021/07/11 06:59:35;;;;;;;4.07;3.03;;;26.60;67.00;;;29.93;53.17;101502.34;4997198;28;98101;-71
2021/07/11 07:02:06;;;;;;;8.60;3.47;;;26.10;68.00;;;29.63;53.42;101492.06;5001020;28;98672;-71
2021/07/11 07:04:35;;;;;;;3.90;2.35;;;25.80;68.80;;;30.43;51.77;101479.16;4996741;28;97114;-71
2021/07/11 07:07:07;;;;;;;1.52;1.30;;;25.80;69.00;;;34.11;44.37;101461.31;4998945;28;98192;-71
2021/07/11 07:09:36;;;;;;;15.00;2.08;;;27.10;67.60;;;36.73;40.26;101424.63;4992401;28;96824;-71
2021/07/11 07:12:06;;;;;;;2.00;1.75;;;28.90;65.30;;;38.36;38.83;101421.13;5001357;28;98000;-71
2021/07/11 07:14:36;;;;;;;3.25;1.95;;;30.40;63.80;;;39.29;38.42;101425.91;5000707;28;96806;-72
2021/07/11 07:17:06;;;;;;;4.03;1.85;;;31.50;62.80;;;39.82;38.22;101423.81;4996636;28;97471;-72
2021/07/11 07:19:35;;;;;;;12.00;2.78;;;32.40;62.30;;;40.24;38.77;101427.06;4995794;28;97938;-72
2021/07/11 07:22:05;;;;;;;12.35;2.67;;;33.00;62.10;;;40.32;39.28;101445.81;5007941;27;96826;-72
2021/07/11 07:24:35;;;;;;;3.03;1.65;;;33.30;62.70;;;39.98;40.37;101454.97;4995773;28;97029;-72
2021/07/11 07:27:06;;;;;;;7.53;1.98;;;33.30;62.40;;;38.15;44.07;101473.31;4998529;28;96894;-72
2021/07/11 07:29:34;;;;;;;5.50;2.72;;;32.90;63.50;;;36.25;48.36;101481.25;4984742;28;97989;-71
2021/07/11 07:32:05;;;;;;;2.65;1.95;;;32.00;65.00;;;34.96;50.51;101478.44;5004530;28;96941;-72
2021/07/11 07:34:35;;;;;;;7.00;3.25;;;31.20;66.90;;;34.79;50.69;101474.22;5001628;28;96933;-71
2021/07/11 07:37:06;;;;;;;2.13;1.73;;;30.60;67.30;;;36.19;47.17;101480.31;4999539;28;96740;-75
2021/07/11 07:39:36;;;;;;;3.92;2.58;;;30.50;67.30;;;37.58;44.57;101475.63;5013004;27;97236;-74
2021/07/11 07:42:06;;;;;;;6.38;2.15;;;30.90;66.90;;;39.45;41.08;101475.94;5000569;28;97231;-75
2021/07/11 07:44:35;;;;;;;3.08;2.10;;;31.60;66.10;;;40.31;39.88;101494.06;5000705;28;96786;-75
2021/07/11 07:47:08;;;;;;;3.15;2.40;;;32.40;65.50;;;40.70;40.32;101509.47;4998365;28;97168;-74
2021/07/11 07:49:37;;;;;;;3.60;2.67;;;33.00;64.60;;;39.69;42.55;101504.75;5032794;27;97004;-74
2021/07/11 07:52:06;;;;;;;5.45;2.97;;;33.10;64.50;;;38.43;44.68;101504.81;4996783;28;98041;-73
2021/07/11 07:54:36;;;;;;;2.25;2.10;;;32.70;65.00;;;37.48;46.30;101514.03;4993564;28;97611;-75
2021/07/11 07:57:05;;;;;;;5.03;2.55;;;32.30;65.20;;;36.68;47.75;101520.25;4998181;28;97460;-74
2021/07/11 07:59:34;;;;;;;3.53;2.10;;;31.80;66.20;;;37.41;45.72;101519.91;4998180;28;99001;-75
2021/07/11 08:02:06;;;;;;;5.10;2.90;;;31.60;66.70;;;36.33;48.39;101535.56;5001902;28;96935;-75
2021/07/11 08:04:35;;;;;;;8.07;2.22;;;31.30;66.50;;;34.55;52.30;101542.63;4999875;28;96689;-74
2021/07/11 08:07:06;;;;;;;6.28;3.00;;;30.70;67.40;;;34.59;51.12;101528.59;4999912;28;96991;-73
2021/07/11 08:09:36;;;;;;;8.00;2.47;;;30.20;68.20;;;36.04;48.25;101535.09;5014973;27;99126;-73
2021/07/11 08:12:06;;;;;;;4.00;2.17;;;30.30;68.40;;;35.98;48.37;101542.50;4996264;28;96965;-74
2021/07/11 08:14:36;;;;;;;4.88;3.00;;;30.40;68.40;;;35.09;50.81;101546.03;5014264;27;96877;-74
2021/07/11 08:17:05;;;;;;;2.72;2.22;;;30.30;68.40;;;35.06;50.27;101549.72;4988038;28;97584;-74
2021/07/11 08:19:33;;;;;;;5.38;2.63;;;30.30;68.60;;;33.81;53.45;101559.16;4980505;28;96870;-73
2021/07/11 08:22:05;;;;;;;7.25;4.07;;;29.90;68.60;;;32.55;55.45;101556.75;4999451;28;98312;-74
2021/07/11 08:24:35;;;;;;;4.82;2.42;;;29.40;69.20;;;31.73;56.92;101564.41;4999782;28;96906;-73
2021/07/11 08:27:05;;;;;;;5.68;3.20;;;28.70;70.10;;;31.37;57.31;101562.66;4993873;28;96878;-74
2021/07/11 08:29:34;;;;;;;3.50;3.10;;;28.20;70.80;;;30.99;57.33;101558.56;4998292;28;98219;-74
2021/07/11 08:32:06;;;;;;;2.88;1.90;;;27.80;70.90;;;30.29;58.37;101556.00;4998222;28;99998;-73
2021/07/11 08:34:36;;;;;;;;;;;27.40;71.10;;;30.38;57.79;101559.06;5014981;27;96998;-72
2021/07/11 08:37:05;;;;;;;5.97;3.08;;;27.00;71.30;;;30.65;56.77;101563.44;5001802;28;98524;-73
2021/07/11 08:39:38;;;;;;;2.55;1.95;;;26.90;71.70;;;30.61;56.65;101561.91;5000063;28;96959;-73
2021/07/11 08:42:09;;;;;;;3.88;1.85;;;26.80;71.70;;;30.72;56.30;101565.31;5000572;28;98446;-74
2021/07/11 08:44:38;;;;;;;2.92;1.38;;;26.80;71.70;;;30.10;57.62;101573.25;5002736;28;96835;-73
2021/07/11 08:47:07;;;;;;;2.70;2.17;;;26.60;71.50;;;29.76;58.05;101580.72;4998065;28;97164;-72
2021/07/11 08:49:36;;;;;;;4.75;2.25;;;26.40;71.80;;;29.60;57.83;101574.97;4998331;28;97540;-72
2021/07/11 08:52:07;;;;;;;4.72;2.33;;;26.20;71.80;;;29.34;58.13;101584.66;5007469;28;97736;-73
2021/07/11 08:54:37;;;;;;;2.47;1.98;;;26.00;72.10;;;28.81;58.91;101577.94;5016576;27;96860;-72
2021/07/11 08:57:11;;;;;;;6.00;3.72;;;25.70;72.10;;;28.16;60.13;101588.13;5004277;28;97675;-72
2021/07/11 08:59:43;;;;;;;6.05;3.05;;;;;;;27.69;60.66;101592.16;4998020;28;98260;-72
2021/07/11 09:02:13;;;;;;;3.70;1.80;;;24.90;72.00;;;27.23;61.59;101595.34;5003154;28;98151;-72
2021/07/11 09:04:46;;;;;;;1.95;1.85;;;24.50;72.90;;;26.96;61.58;101594.09;4999271;28;97043;-72
2021/07/11 09:07:21;;;;;;;2.70;2.50;;;24.20;73.40;;;26.69;61.88;101595.63;4999739;28;97254;-71
2021/07/11 09:09:56;;;;;;;6.00;3.08;;;23.80;73.70;;;26.41;61.99;101598.25;4994986;28;98032;-71
2021/07/11 09:12:28;;;;;;;5.70;2.90;;;23.50;74.00;;;26.18;62.24;101592.28;5000447;28;97677;-71
2021/07/11 09:15:04;;;;;;;15.40;3.58;;;23.40;74.20;;;25.99;62.27;101600.81;5001905;28;96926;-71
2021/07/11 09:17:34;;;;;;;10.07;3.90;;;23.10;74.10;;;25.96;61.63;101601.59;4999686;28;97091;-71
2021/07/11 09:20:08;;;;;;;3.28;2.80;;;22.90;74.40;;;25.90;61.35;101605.88;5017067;27;97821;-72
2021/07/11 09:22:37;;;;;;;2.65;2.38;;;22.80;74.60;;;26.09;60.98;101602.81;4998886;28;98157;-72
2021/07/11 09:25:08;;;;;;;5.32;3.75;;;22.70;74.70;;;26.46;59.82;101608.91;4997748;28;96789;-73
2021/07/11 09:27:40;;;;;;;12.65;3.95;;;22.80;74.70;;;26.70;59.02;101614.50;4998517;28;97537;-73
2021/07/11 09:30:15;;;;;;;3.97;3.50;;;22.90;74.40;;;26.56;59.10;101614.44;5002007;28;96970;-72
2021/07/11 09:32:45;;;;;;;6.40;3.95;;;23.00;73.90;;;26.30;59.62;101616.66;5007002;28;97686;-72
2021/07/11 09:35:18;;;;;;;7.75;4.93;;;22.80;73.80;;;26.18;59.70;101617.78;4998738;28;96805;-72
2021/07/11 09:37:49;;;;;;;;;;;22.80;73.80;;;26.03;60.07;101618.09;5005896;28;96806;-71
2021/07/11 09:40:21;;;;;;;7.72;3.95;;;22.60;73.90;;;25.87;60.40;101618.41;5004299;28;97883;-72
2021/07/11 09:42:55;;;;;;;5.03;2.58;;;22.50;74.10;;;25.84;60.28;101626.63;5000756;28;97715;-72
2021/07/11 09:45:27;;;;;;;11.57;3.42;;;22.40;74.20;;;25.66;60.56;101626.47;4983423;28;96767;-71
2021/07/11 09:48:05;;;;;;;6.63;4.05;;;22.30;74.20;;;25.81;60.12;101627.34;5015480;27;96842;-72
2021/07/11 09:50:35;;;;;;;5.47;1.42;;;22.30;74.30;;;26.06;59.08;101611.84;5015012;27;98068;-72
2021/07/11 09:53:06;;;;;;;7.82;2.55;;;22.40;74.20;;;26.73;57.69;101618.44;5001199;28;97742;-72
2021/07/11 09:55:37;;;;;;;4.45;1.63;;;22.60;74.10;;;27.35;56.33;101615.00;5002829;28;96719;-73
2021/07/11 09:58:11;;;;;;;8.18;3.25;;;22.90;73.60;;;27.59;55.94;101627.97;5000682;28;97015;-72
2021/07/11 10:00:44;;;;;;;7.57;2.88;;;23.20;73.00;;;27.80;55.41;101623.25;4999440;28;97554;-72
2021/07/11 10:03:15;;;;;;;8.52;2.67;;;23.50;72.70;;;27.77;55.75;101626.78;5000443;28;98688;-73
2021/07/11 10:05:46;;;;;;;7.50;3.80;;;23.60;72.20;;;27.50;57.06;101620.09;5017160;27;96948;-72
2021/07/11 10:08:15;;;;;;;7.13;4.32;;;23.70;72.20;;;27.25;57.19;101623.25;5012201;27;96771;-73
2021/07/11 10:10:44;;;;;;;8.95;4.95;;;23.60;72.20;;;27.13;57.57;101615.38;5002878;28;97978;-73
2021/07/11 10:13:14;;;;;;;17.98;2.83;;;23.50;72.40;;;27.27;57.52;101616.94;4999344;28;98496;-73
2021/07/11 10:15:43;;;;;;;4.57;2.83;;;23.50;72.70;;;27.83;56.17;101621.69;4987014;28;97583;-73
2021/07/11 10:18:17;;;;;;;4.03;2.85;;;23.60;72.50;;;28.50;54.61;101622.25;5015551;27;96903;-73
2021/07/11 10:20:49;;;;;;;5.22;2.88;;;23.90;72.10;;;29.19;53.32;101610.03;5000530;28;96915;-73
2021/07/11 10:23:28;;;;;;;3.65;2.42;;;24.30;71.60;;;30.11;51.60;101613.53;5002615;28;97743;-74
2021/07/11 10:25:59;;;;;;;7.85;3.05;;;24.80;71.10;;;30.52;51.39;101614.19;4996869;28;97559;-74
2021/07/11 10:28:35;;;;;;;7.13;3.97;;;25.30;70.50;;;30.63;51.53;101614.88;4998031;28;97197;-74
2021/07/11 10:31:20;;;;;;;3.50;2.50;;;25.60;70.30;;;30.73;51.78;101614.72;4998470;28;99243;-74